createdAt,value
2019-05-26T00:01:23.882Z,7.80
2019-05-26T00:04:27.530Z,9.03
2019-05-26T00:07:31.267Z,9.25
2019-05-26T00:10:34.864Z,10.03
2019-05-26T00:13:38.409Z,9.85
2019-05-26T00:16:42.042Z,9.60
2019-05-26T00:19:45.563Z,9.85
2019-05-26T00:22:49.165Z,10.13
2019-05-26T00:25:52.730Z,9.85
2019-05-26T00:28:56.300Z,10.32
2019-05-26T00:31:59.864Z,10.10
2019-05-26T00:35:04.506Z,10.10
2019-05-26T00:38:08.054Z,11.15
2019-05-26T00:41:11.713Z,10.48
2019-05-26T00:44:15.321Z,10.78
2019-05-26T00:47:18.894Z,10.65
2019-05-26T00:50:24.071Z,10.72
2019-05-26T00:53:27.774Z,10.43
2019-05-26T00:56:31.425Z,10.70
2019-05-26T00:59:34.979Z,10.55
2019-05-26T01:02:38.736Z,10.48
2019-05-26T01:05:42.896Z,11.38
2019-05-26T01:08:46.448Z,10.32
2019-05-26T01:11:50.029Z,11.48
2019-05-26T01:14:53.571Z,11.30
2019-05-26T01:17:58.905Z,11.45
2019-05-26T01:21:02.453Z,11.73
2019-05-26T01:24:06.086Z,11.43
2019-05-26T01:27:09.657Z,12.43
2019-05-26T01:30:13.649Z,12.63
2019-05-26T01:33:17.333Z,11.40
2019-05-26T01:36:21.123Z,11.00
2019-05-26T01:39:24.784Z,11.05
2019-05-26T01:42:28.375Z,11.50
2019-05-26T01:45:31.995Z,11.18
2019-05-26T01:48:35.639Z,11.53
2019-05-26T01:51:39.211Z,12.28
2019-05-26T01:54:42.804Z,11.95
2019-05-26T01:57:46.366Z,12.50
2019-05-26T02:00:50.026Z,10.75
2019-05-26T02:03:53.632Z,11.12
2019-05-26T02:06:57.214Z,11.70
2019-05-26T02:10:00.835Z,11.63
2019-05-26T02:13:04.671Z,11.35
2019-05-26T02:16:08.176Z,11.90
2019-05-26T02:19:11.833Z,11.80
2019-05-26T02:22:19.059Z,12.43
2019-05-26T02:25:23.093Z,13.48
2019-05-26T02:28:26.599Z,13.95
2019-05-26T02:31:30.189Z,14.30
2019-05-26T02:34:33.740Z,13.83
2019-05-26T02:37:37.413Z,13.80
2019-05-26T02:40:40.944Z,13.58
2019-05-26T02:43:46.218Z,12.60
2019-05-26T02:46:49.790Z,13.18
2019-05-26T02:49:54.965Z,12.35
2019-05-26T02:52:58.510Z,12.58
2019-05-26T02:56:02.319Z,14.13
2019-05-26T02:59:05.947Z,13.43
2019-05-26T03:02:11.087Z,14.13
2019-05-26T03:05:15.305Z,13.40
2019-05-26T03:08:18.842Z,14.10
2019-05-26T03:11:24.089Z,14.83
2019-05-26T03:14:29.819Z,14.25
2019-05-26T03:17:35.468Z,13.78
2019-05-26T03:20:40.710Z,14.38
2019-05-26T03:23:47.213Z,13.88
2019-05-26T03:26:50.847Z,14.50
2019-05-26T03:29:54.560Z,14.20
2019-05-26T03:32:58.051Z,15.13
2019-05-26T03:36:01.612Z,15.58
2019-05-26T03:39:08.480Z,15.70
2019-05-26T03:42:12.184Z,15.63
2019-05-26T03:45:27.512Z,15.25
2019-05-26T03:48:31.159Z,14.65
2019-05-26T03:51:34.934Z,15.40
2019-05-26T03:54:40.138Z,15.13
2019-05-26T03:57:45.268Z,16.77
2019-05-26T04:00:53.376Z,15.05
2019-05-26T04:03:56.934Z,15.58
2019-05-26T04:07:00.467Z,15.10
2019-05-26T04:10:06.504Z,14.95
2019-05-26T04:13:11.740Z,14.18
2019-05-26T04:16:15.277Z,14.68
2019-05-26T04:19:26.161Z,14.45
2019-05-26T04:22:29.703Z,15.72
2019-05-26T04:25:34.791Z,14.33
2019-05-26T04:28:38.508Z,14.00
2019-05-26T04:31:42.128Z,14.28
2019-05-26T04:34:47.336Z,13.90
2019-05-26T04:37:50.907Z,14.63
2019-05-26T04:40:54.441Z,13.38
2019-05-26T04:43:58.021Z,14.18
2019-05-26T04:47:01.713Z,13.35
2019-05-26T04:50:06.562Z,13.93
2019-05-26T04:53:10.154Z,13.15
2019-05-26T04:56:13.802Z,13.20
2019-05-26T04:59:17.392Z,12.58
2019-05-26T05:02:20.974Z,12.82
2019-05-26T05:05:24.674Z,13.32
2019-05-26T05:08:28.159Z,13.22
2019-05-26T05:11:31.939Z,13.18
2019-05-26T05:14:35.520Z,13.50
2019-05-26T05:17:39.246Z,13.28
2019-05-26T05:20:42.892Z,13.32
2019-05-26T05:23:46.460Z,11.83
2019-05-26T05:26:50.039Z,12.40
2019-05-26T05:29:53.620Z,11.50
2019-05-26T05:32:57.303Z,12.20
2019-05-26T05:36:00.869Z,12.58
2019-05-26T05:39:06.945Z,13.53
2019-05-26T05:42:10.614Z,11.97
2019-05-26T05:45:15.508Z,12.60
2019-05-26T05:48:19.166Z,11.33
2019-05-26T05:51:22.799Z,11.00
2019-05-26T05:54:26.470Z,10.68
2019-05-26T05:57:30.103Z,10.08
2019-05-26T06:00:33.765Z,10.20
2019-05-26T06:03:37.406Z,11.12
2019-05-26T06:06:41.077Z,10.63
2019-05-26T06:09:44.694Z,10.00
2019-05-26T06:12:48.372Z,10.18
2019-05-26T06:15:51.992Z,10.13
2019-05-26T06:18:55.637Z,9.03
2019-05-26T06:21:59.330Z,9.98
2019-05-26T06:25:03.025Z,10.08
2019-05-26T06:28:06.660Z,9.83
2019-05-26T06:31:10.285Z,9.98
2019-05-26T06:34:13.959Z,8.83
2019-05-26T06:37:17.605Z,9.55
2019-05-26T06:40:21.329Z,8.48
2019-05-26T06:43:25.039Z,8.80
2019-05-26T06:46:28.737Z,8.20
2019-05-26T06:49:32.391Z,7.67
2019-05-26T06:52:36.003Z,7.95
2019-05-26T06:55:39.775Z,7.42
2019-05-26T06:58:43.397Z,6.72
2019-05-26T07:01:47.028Z,8.00
2019-05-26T07:04:50.655Z,9.15
2019-05-26T07:07:54.308Z,6.65
2019-05-26T07:10:57.927Z,6.42
2019-05-26T07:14:01.574Z,7.62
2019-05-26T07:17:05.348Z,6.65
2019-05-26T07:20:09.573Z,6.87
2019-05-26T07:23:13.412Z,6.55
2019-05-26T07:26:17.134Z,6.97
2019-05-26T07:29:20.774Z,6.53
2019-05-26T07:32:24.435Z,16.15
2019-05-26T07:35:28.155Z,6.03
2019-05-26T07:38:31.808Z,5.53
2019-05-26T07:41:35.477Z,4.85
2019-05-26T07:44:39.079Z,5.28
2019-05-26T07:47:42.755Z,5.47
2019-05-26T07:50:46.372Z,5.17
2019-05-26T07:53:50.012Z,5.00
2019-05-26T07:56:53.707Z,5.10
2019-05-26T07:59:57.367Z,4.70
2019-05-26T08:03:00.982Z,3.60
2019-05-26T08:06:04.702Z,2.98
2019-05-26T08:09:09.160Z,3.22
2019-05-26T08:12:25.961Z,3.40
2019-05-26T08:15:18.395Z,2.90
2019-05-26T08:18:22.137Z,3.12
2019-05-26T08:21:25.767Z,2.83
2019-05-26T08:24:29.403Z,2.87
2019-05-26T08:27:32.997Z,2.75
2019-05-26T08:30:36.668Z,2.60
2019-05-26T08:33:41.808Z,2.50
2019-05-26T08:36:45.457Z,2.50
2019-05-26T08:39:50.663Z,2.62
2019-05-26T08:42:54.362Z,2.42
2019-05-26T08:45:58.019Z,2.50
2019-05-26T08:49:01.627Z,3.02
2019-05-26T08:52:05.541Z,2.60
2019-05-26T08:55:09.230Z,2.40
2019-05-26T08:58:12.868Z,3.50
2019-05-26T09:01:16.610Z,3.00
2019-05-26T09:04:20.422Z,3.22
2019-05-26T09:07:24.108Z,3.15
2019-05-26T09:13:58.982Z,4.45
2019-05-26T09:17:02.715Z,4.10
2019-05-26T09:20:20.676Z,3.95
2019-05-26T09:23:24.365Z,5.72
2019-05-26T09:26:33.084Z,4.50
2019-05-26T09:29:36.773Z,4.67
2019-05-26T09:32:40.400Z,5.30
2019-05-26T09:35:44.251Z,4.30
2019-05-26T09:38:47.862Z,4.37
2019-05-26T09:42:07.110Z,4.30
2019-05-26T09:45:12.671Z,4.30
2019-05-26T09:48:16.594Z,4.15
2019-05-26T09:51:20.292Z,4.60
2019-05-26T09:54:28.664Z,3.90
2019-05-26T09:57:32.296Z,3.42
2019-05-26T10:00:44.236Z,3.65
2019-05-26T10:03:51.058Z,2.95
2019-05-26T10:06:54.774Z,3.12
2019-05-26T10:09:58.482Z,3.75
2019-05-26T10:13:02.127Z,2.83
2019-05-26T10:16:05.797Z,3.40
2019-05-26T10:19:09.641Z,3.25
2019-05-26T10:22:13.259Z,2.85
2019-05-26T10:25:16.975Z,2.75
2019-05-26T10:28:20.607Z,2.80
2019-05-26T10:31:24.279Z,2.77
2019-05-26T10:34:27.909Z,3.45
2019-05-26T10:37:31.542Z,2.90
2019-05-26T10:40:35.246Z,3.22
2019-05-26T10:43:47.413Z,3.12
2019-05-26T10:46:44.252Z,3.12
2019-05-26T10:49:47.931Z,2.75
2019-05-26T10:52:58.650Z,2.80
2019-05-26T10:56:02.306Z,2.67
2019-05-26T10:59:05.990Z,2.52
2019-05-26T11:02:09.651Z,2.67
2019-05-26T11:05:15.234Z,2.20
2019-05-26T11:08:18.873Z,1.98
2019-05-26T11:11:22.508Z,2.75
2019-05-26T11:14:26.146Z,2.45
2019-05-26T11:17:29.816Z,2.27
2019-05-26T11:20:33.432Z,2.45
2019-05-26T11:23:37.094Z,2.58
2019-05-26T11:26:40.716Z,2.50
2019-05-26T11:29:44.839Z,2.00
2019-05-26T11:32:54.359Z,2.00
2019-05-26T11:40:04.977Z,1.72
2019-05-26T11:47:12.471Z,1.70
2019-05-26T11:50:26.903Z,1.90
2019-05-26T11:54:20.512Z,1.90
2019-05-26T12:15:16.225Z,1.62
2019-05-26T12:18:20.045Z,1.32
2019-05-26T12:21:24.827Z,1.55
2019-05-26T12:24:28.962Z,1.57
2019-05-26T12:27:35.001Z,1.60
2019-05-26T12:30:39.751Z,1.42
2019-05-26T12:33:44.789Z,1.70
2019-05-26T12:36:50.965Z,1.70
2019-05-26T12:39:57.399Z,2.90
2019-05-26T12:43:03.827Z,2.10
2019-05-26T12:46:10.916Z,2.33
2019-05-26T13:10:30.632Z,1.50
2019-05-26T13:13:34.276Z,1.40
2019-05-26T13:16:37.950Z,1.32
2019-05-26T13:19:41.628Z,1.30
2019-05-26T13:22:45.299Z,1.20
2019-05-26T13:25:50.592Z,1.17
2019-05-26T13:28:54.237Z,1.10
2019-05-26T13:31:59.101Z,1.32
2019-05-26T13:35:02.689Z,1.37
2019-05-26T13:38:06.368Z,1.47
2019-05-26T13:41:09.996Z,1.32
2019-05-26T13:44:13.714Z,1.55
2019-05-26T13:47:25.643Z,1.40
2019-05-26T13:50:23.479Z,2.12
2019-05-26T13:53:28.619Z,1.47
2019-05-26T13:56:32.311Z,1.40
2019-05-26T13:59:35.965Z,2.30
2019-05-26T14:02:40.158Z,3.00
2019-05-26T14:05:43.882Z,2.30
2019-05-26T14:08:47.623Z,1.50
2019-05-26T14:11:51.269Z,2.17
2019-05-26T14:14:56.088Z,1.75
2019-05-26T14:18:00.118Z,1.40
2019-05-26T14:21:03.881Z,1.40
2019-05-26T14:24:09.224Z,1.50
2019-05-26T14:27:12.895Z,1.87
2019-05-26T14:30:16.897Z,1.50
2019-05-26T14:33:20.550Z,1.50
2019-05-26T14:36:23.279Z,3.33
2019-05-26T14:39:26.852Z,6.50
2019-05-26T14:42:30.544Z,1.70
2019-05-26T14:45:34.413Z,1.42
2019-05-26T14:48:38.109Z,1.00
2019-05-26T14:51:41.932Z,1.37
2019-05-26T14:54:45.624Z,1.12
2019-05-26T14:57:49.313Z,1.45
2019-05-26T15:00:55.046Z,1.20
2019-05-26T15:03:58.360Z,1.47
2019-05-26T15:07:01.977Z,1.85
2019-05-26T15:10:08.878Z,1.45
2019-05-26T15:13:12.513Z,1.30
2019-05-26T15:16:16.187Z,1.50
2019-05-26T15:19:19.926Z,1.47
2019-05-26T15:22:23.651Z,1.17
2019-05-26T15:25:27.262Z,1.02
2019-05-26T15:28:31.095Z,1.10
2019-05-26T15:31:34.697Z,1.12
2019-05-26T15:34:38.422Z,1.00
2019-05-26T15:37:42.163Z,1.30
2019-05-26T15:40:45.877Z,1.20
2019-05-26T15:43:49.526Z,1.10
2019-05-26T15:46:53.208Z,0.80
2019-05-26T15:49:56.960Z,2.77
2019-05-26T15:53:00.675Z,0.98
2019-05-26T15:56:04.444Z,1.40
2019-05-26T15:59:08.083Z,1.30
2019-05-26T16:02:11.815Z,0.98
2019-05-26T16:05:15.786Z,1.12
2019-05-26T16:08:19.439Z,1.20
2019-05-26T16:11:23.118Z,1.10
2019-05-26T16:14:26.857Z,0.98
2019-05-26T16:17:30.504Z,0.90
2019-05-26T16:20:34.158Z,1.00
2019-05-26T16:23:38.764Z,1.10
2019-05-26T16:26:42.441Z,1.25
2019-05-26T16:29:46.829Z,0.90
2019-05-26T16:32:50.492Z,1.35
2019-05-26T16:35:55.635Z,1.22
2019-05-26T16:38:59.501Z,0.93
2019-05-26T16:42:03.184Z,1.00
2019-05-26T16:45:07.942Z,1.02
2019-05-26T16:48:11.675Z,1.10
2019-05-26T16:51:16.248Z,1.47
2019-05-26T16:54:20.021Z,1.77
2019-05-26T16:57:23.669Z,1.20
2019-05-26T17:00:27.435Z,1.20
2019-05-26T17:03:41.854Z,1.30
2019-05-26T17:06:48.586Z,1.27
2019-05-26T17:09:52.204Z,1.32
2019-05-26T17:12:55.860Z,1.50
2019-05-26T17:15:59.582Z,1.70
2019-05-26T17:19:03.347Z,1.47
2019-05-26T17:22:06.940Z,1.40
2019-05-26T17:25:11.230Z,1.50
2019-05-26T17:28:14.928Z,1.45
2019-05-26T17:31:18.705Z,1.60
2019-05-26T17:34:22.559Z,1.30
2019-05-26T17:37:26.219Z,1.40
2019-05-26T17:40:29.897Z,1.40
2019-05-26T17:43:33.534Z,1.65
2019-05-26T17:46:37.389Z,1.42
2019-05-26T17:49:41.139Z,1.20
2019-05-26T17:52:44.769Z,1.30
2019-05-26T17:55:48.433Z,1.40
2019-05-26T17:58:52.159Z,1.52
2019-05-26T18:01:57.374Z,1.65
2019-05-26T18:05:01.182Z,1.62
2019-05-26T18:08:05.205Z,1.72
2019-05-26T18:11:08.953Z,1.95
2019-05-26T18:14:12.642Z,1.57
2019-05-26T18:17:49.035Z,1.20
2019-05-26T18:20:52.692Z,1.50
2019-05-26T18:23:57.411Z,1.47
2019-05-26T18:27:03.118Z,2.20
2019-05-26T18:30:11.450Z,1.70
2019-05-26T18:33:28.992Z,1.82
2019-05-26T18:36:38.305Z,1.65
2019-05-26T18:39:42.154Z,1.40
2019-05-26T18:42:46.049Z,1.77
2019-05-26T18:45:49.826Z,1.95
2019-05-26T18:48:53.669Z,1.80
2019-05-26T18:51:57.523Z,1.50
2019-05-26T18:55:01.245Z,1.52
2019-05-26T18:58:06.885Z,1.72
2019-05-26T19:01:12.047Z,1.67
2019-05-26T19:04:16.370Z,2.35
2019-05-26T19:07:20.163Z,2.08
2019-05-26T19:10:24.771Z,2.20
2019-05-26T19:13:28.509Z,2.95
2019-05-26T19:16:32.153Z,2.22
2019-05-26T19:19:35.920Z,3.20
2019-05-26T19:22:39.713Z,2.20
2019-05-26T19:25:43.477Z,1.70
2019-05-26T19:28:47.212Z,1.92
2019-05-26T19:31:50.832Z,1.80
2019-05-26T19:34:54.740Z,2.40
2019-05-26T19:37:58.410Z,2.70
2019-05-26T19:41:02.053Z,2.92
2019-05-26T19:44:05.837Z,4.33
2019-05-26T19:47:09.583Z,2.20
2019-05-26T19:50:13.419Z,2.70
2019-05-26T19:53:17.146Z,2.00
2019-05-26T19:56:21.100Z,2.22
2019-05-26T19:59:27.771Z,2.08
2019-05-26T20:02:31.547Z,2.17
2019-05-26T20:05:35.279Z,1.85
2019-05-26T20:08:39.031Z,2.05
2019-05-26T20:11:42.761Z,2.00
2019-05-26T20:14:46.850Z,1.85
2019-05-26T20:17:51.154Z,2.60
2019-05-26T20:20:57.106Z,2.08
2019-05-26T20:24:04.731Z,2.00
2019-05-26T20:27:08.473Z,2.27
2019-05-26T20:30:12.759Z,2.37
2019-05-26T20:33:16.482Z,2.10
2019-05-26T20:36:20.108Z,2.80
2019-05-26T20:39:23.879Z,2.10
2019-05-26T20:42:27.690Z,2.30
2019-05-26T20:45:31.436Z,2.17
2019-05-26T20:48:35.211Z,2.30
2019-05-26T20:51:38.952Z,2.40
2019-05-26T20:54:51.597Z,2.60
2019-05-26T20:57:55.196Z,2.20
2019-05-26T21:00:58.856Z,2.58
2019-05-26T21:04:02.618Z,3.17
2019-05-26T21:07:06.315Z,2.83
2019-05-26T21:10:10.203Z,2.20
2019-05-26T21:13:13.841Z,2.90
2019-05-26T21:16:17.499Z,2.70
2019-05-26T21:19:22.389Z,2.87
2019-05-26T21:22:26.091Z,3.20
2019-05-26T21:25:31.512Z,2.52
2019-05-26T21:28:35.301Z,2.92
2019-05-26T21:31:38.922Z,3.22
2019-05-26T21:34:42.591Z,2.92
2019-05-26T21:37:46.401Z,3.37
2019-05-26T21:40:50.263Z,3.45
2019-05-26T21:43:53.924Z,3.00
2019-05-26T21:46:57.577Z,3.05
2019-05-26T21:50:01.275Z,4.58
2019-05-26T21:53:05.074Z,3.20
2019-05-26T21:56:08.763Z,3.15
2019-05-26T21:59:12.482Z,3.40
2019-05-26T22:02:19.110Z,3.27
2019-05-26T22:05:22.288Z,3.22
2019-05-26T22:08:26.054Z,3.37
2019-05-26T22:11:32.721Z,3.37
2019-05-26T22:14:36.479Z,3.65
2019-05-26T22:17:40.132Z,3.40
2019-05-26T22:20:43.861Z,3.92
2019-05-26T22:23:47.653Z,3.27
2019-05-26T22:26:51.463Z,3.77
2019-05-26T22:29:55.307Z,4.25
2019-05-26T22:32:59.008Z,3.62
2019-05-26T22:36:02.678Z,4.55
2019-05-26T22:39:07.428Z,3.75
2019-05-26T22:42:11.186Z,4.33
2019-05-26T22:45:15.276Z,3.58
2019-05-26T22:48:19.018Z,4.08
2019-05-26T22:51:22.783Z,4.20
2019-05-26T22:54:26.456Z,4.50
2019-05-26T22:57:30.170Z,4.70
2019-05-26T23:00:34.039Z,3.72
2019-05-26T23:03:39.930Z,4.30
2019-05-26T23:06:43.612Z,4.08
2019-05-26T23:09:47.328Z,4.10
2019-05-26T23:12:52.555Z,3.85
2019-05-26T23:15:56.283Z,4.35
2019-05-26T23:18:59.955Z,4.53
2019-05-26T23:22:03.696Z,4.33
2019-05-26T23:25:08.713Z,3.87
2019-05-26T23:28:12.395Z,4.17
2019-05-26T23:31:16.172Z,4.53
2019-05-26T23:34:19.887Z,4.15
2019-05-26T23:37:23.587Z,4.30
2019-05-26T23:40:27.366Z,4.10
2019-05-26T23:43:31.049Z,3.85
2019-05-26T23:46:34.744Z,4.25
2019-05-26T23:49:38.394Z,4.33
2019-05-26T23:52:42.091Z,4.30
2019-05-26T23:55:47.041Z,4.60
2019-05-26T23:58:50.784Z,4.17
